1899 NOT_NAMED (1899273N18127)


IBTrACS version v04r00. Visit IBTrACS website for data access.
Please direct all questions to the IBTrACS Q and A forum

Storm track - Intensity - Wind Radii - Intensity Data - Source Data - All data

Summary Information

Storm ID 1899273N18127
Start Sep 30 04Z
End Oct 13 04Z
ATCF IDs
Track status Best track data.

Storm track plot

Map of storm track

Intensity plots

No Intensity information for this storm


Radial wind information

No radial wind information for this storm


Position and Intensity Table

BASIN ISO_TIME_________ NATURE LAT LON
degrees north degrees east
WP 1899-09-30 04:00:00 NR 17.50 127.10
WP 06:00:00 NR 17.58 126.92
WP 09:00:00 NR 17.70 126.65
WP 12:00:00 NR 17.82 126.38
WP 15:00:00 NR 17.95 126.10
WP 16:00:00 NR 18.00 126.00
WP 18:00:00 NR 18.10 125.80
WP 21:00:00 NR 18.25 125.50
WP 1899-10-01 00:00:00 NR 18.40 125.20
WP 03:00:00 NR 18.55 124.90
WP 04:00:00 NR 18.60 124.80
WP 06:00:00 NR 18.69 124.61
WP 09:00:00 NR 18.82 124.34
WP 12:00:00 NR 18.94 124.07
WP 15:00:00 NR 19.06 123.79
WP 16:00:00 NR 19.10 123.70
WP 18:00:00 NR 19.19 123.51
WP 21:00:00 NR 19.33 123.21
WP 1899-10-02 00:00:00 NR 19.46 122.91
WP 03:00:00 NR 19.57 122.60
WP 04:00:00 NR 19.60 122.50
WP 06:00:00 NR 19.65 122.29
WP 09:00:00 NR 19.69 121.98
WP 12:00:00 NR 19.71 121.65
WP 15:00:00 NR 19.71 121.32
WP 16:00:00 NR 19.70 121.20
WP 18:00:00 NR 19.70 120.94
WP 21:00:00 NR 19.69 120.54
WP 1899-10-03 00:00:00 NR 19.64 120.15
WP 03:00:00 NR 19.54 119.80
WP 04:00:00 NR 19.50 119.70
WP 06:00:00 NR 19.39 119.54
WP 09:00:00 NR 19.19 119.34
WP 12:00:00 NR 18.95 119.19
WP 15:00:00 NR 18.69 119.05
WP 16:00:00 NR 18.60 119.00
WP 18:00:00 NR 18.43 118.89
WP 21:00:00 NR 18.17 118.73
WP 1899-10-04 00:00:00 NR 17.91 118.56
WP 03:00:00 NR 17.67 118.37
WP 04:00:00 NR 17.60 118.30
WP 06:00:00 NR 17.46 118.16
WP 09:00:00 NR 17.28 117.92
WP 12:00:00 NR 17.11 117.67
WP 15:00:00 NR 16.95 117.39
WP 16:00:00 NR 16.90 117.30
WP 18:00:00 NR 16.79 117.10
WP 21:00:00 NR 16.62 116.79
WP 1899-10-05 00:00:00 NR 16.47 116.48
WP 03:00:00 NR 16.34 116.19
WP 04:00:00 NR 16.30 116.10
WP 06:00:00 NR 16.23 115.94
WP 09:00:00 NR 16.14 115.73
WP 12:00:00 NR 16.07 115.54
WP 15:00:00 NR 16.01 115.36
WP 16:00:00 NR 16.00 115.30
WP 18:00:00 NR 15.97 115.18
WP 21:00:00 NR 15.94 114.99
WP 1899-10-06 00:00:00 NR 15.92 114.82
WP 03:00:00 NR 15.91 114.65
WP 04:00:00 NR 15.90 114.60
WP 06:00:00 NR 15.88 114.49
WP 09:00:00 NR 15.86 114.34
WP 12:00:00 NR 15.83 114.19
WP 15:00:00 NR 15.81 114.05
WP 16:00:00 NR 15.80 114.00
WP 18:00:00 NR 15.78 113.90
WP 21:00:00 NR 15.75 113.75
WP 1899-10-07 00:00:00 NR 15.73 113.60
WP 03:00:00 NR 15.70 113.45
WP 04:00:00 NR 15.70 113.40
WP 06:00:00 NR 15.69 113.30
WP 09:00:00 NR 15.69 113.15
WP 12:00:00 NR 15.69 113.00
WP 15:00:00 NR 15.70 112.85
WP 16:00:00 NR 15.70 112.80
WP 18:00:00 NR 15.70 112.69
WP 21:00:00 NR 15.69 112.54
WP 1899-10-08 00:00:00 NR 15.69 112.38
WP 03:00:00 NR 15.70 112.24
WP 04:00:00 NR 15.70 112.20
WP 06:00:00 NR 15.71 112.12
WP 09:00:00 NR 15.73 112.02
WP 12:00:00 NR 15.75 111.92
WP 15:00:00 NR 15.79 111.83
WP 16:00:00 NR 15.80 111.80
WP 18:00:00 NR 15.83 111.73
WP 21:00:00 NR 15.88 111.63
WP 1899-10-09 00:00:00 NR 15.94 111.53
WP 03:00:00 NR 15.99 111.43
WP 04:00:00 NR 16.00 111.40
WP 06:00:00 NR 16.02 111.34
WP 09:00:00 NR 16.04 111.27
WP 12:00:00 NR 16.06 111.19
WP 15:00:00 NR 16.09 111.12
WP 16:00:00 NR 16.10 111.10
WP 18:00:00 NR 16.14 111.05
WP 21:00:00 NR 16.21 110.98
WP 1899-10-10 00:00:00 NR 16.29 110.90
WP 03:00:00 NR 16.37 110.83
WP 04:00:00 NR 16.40 110.80
WP 06:00:00 NR 16.46 110.75
WP 09:00:00 NR 16.54 110.68
WP 12:00:00 NR 16.62 110.61
WP 15:00:00 NR 16.68 110.53
WP 16:00:00 NR 16.70 110.50
WP 18:00:00 NR 16.73 110.44
WP 21:00:00 NR 16.76 110.34
WP 1899-10-11 00:00:00 NR 16.79 110.24
WP 03:00:00 NR 16.80 110.13
WP 04:00:00 NR 16.80 110.10
WP 06:00:00 NR 16.81 110.04
WP 09:00:00 NR 16.81 109.94
WP 12:00:00 NR 16.81 109.84
WP 15:00:00 NR 16.80 109.74
WP 16:00:00 NR 16.80 109.70
WP 18:00:00 NR 16.81 109.62
WP 21:00:00 NR 16.81 109.50
WP 1899-10-12 00:00:00 NR 16.82 109.37
WP 03:00:00 NR 16.81 109.24
WP 04:00:00 NR 16.80 109.20
WP 06:00:00 NR 16.78 109.12
WP 09:00:00 NR 16.73 109.00
WP 12:00:00 NR 16.68 108.87
WP 15:00:00 NR 16.62 108.75
WP 16:00:00 NR 16.60 108.70
WP 18:00:00 NR 16.56 108.61
WP 21:00:00 NR 16.51 108.46
WP 1899-10-13 00:00:00 NR 16.46 108.31
WP 03:00:00 NR 16.42 108.15
WP 04:00:00 NR 16.40 108.10

Source Information

Agency Information
USA
TOKYO
CMA
HKO
NEWDELHI
REUNION
BOM
NADI
WELLINGTON
DS824
TD9636 cons_worldwide_trop_cyclone_18710101-19891231-003:Line=2036
TD9635
NEUMANN
MLC

All available IBTrACS Data

SEASON BASIN SUBBASIN ISO_TIME_________ NATURE LAT LON DIST2LAND LANDFALL IFLAG USA SSHS TD9636 LAT TD9636 LON TD9636 STAGE STORM SPEED STORM DIR
Year degrees north degrees east km km 1 degrees north degrees east kts degrees
1899 WP MM 1899-09-30 04:00:00 NR 17.50 127.10 491 472 __________O___ -1 17.50 127.10 7 6 295
1899 WP MM 06:00:00 NR 17.58 126.92 472 452 __________P___ -1 17.58 126.92 7 6 295
1899 WP MM 09:00:00 NR 17.70 126.65 452 423 __________P___ -1 17.70 126.65 7 6 295
1899 WP MM 12:00:00 NR 17.82 126.38 423 395 __________P___ -1 17.82 126.38 7 6 296
1899 WP MM 15:00:00 NR 17.95 126.10 397 387 __________P___ -1 17.95 126.10 7 6 296
1899 WP MM 16:00:00 NR 18.00 126.00 387 370 __________O___ -1 18.00 126.00 7 6 297
1899 WP MM 18:00:00 NR 18.10 125.80 370 338 __________P___ -1 18.10 125.80 7 6 298
1899 WP MM 21:00:00 NR 18.25 125.50 338 306 __________P___ -1 18.25 125.50 7 7 298
1899 WP MM 1899-10-01 00:00:00 NR 18.40 125.20 306 274 __________P___ -1 18.40 125.20 7 6 298
1899 WP MM 03:00:00 NR 18.55 124.90 275 264 __________P___ -1 18.55 124.90 7 6 298
1899 WP MM 04:00:00 NR 18.60 124.80 264 244 __________O___ -1 18.60 124.80 3 6 297
1899 WP MM 06:00:00 NR 18.69 124.61 244 215 __________P___ -1 18.69 124.61 3 6 296
1899 WP MM 09:00:00 NR 18.82 124.34 215 197 __________P___ -1 18.82 124.34 3 6 296
1899 WP MM 12:00:00 NR 18.94 124.07 197 171 __________P___ -1 18.94 124.07 3 6 295
1899 WP MM 15:00:00 NR 19.06 123.79 176 166 __________P___ -1 19.06 123.79 3 6 295
1899 WP MM 16:00:00 NR 19.10 123.70 166 154 __________O___ -1 19.10 123.70 4 6 296
1899 WP MM 18:00:00 NR 19.19 123.51 154 138 __________P___ -1 19.19 123.51 4 6 297
1899 WP MM 21:00:00 NR 19.33 123.21 138 133 __________P___ -1 19.33 123.21 4 6 296
1899 WP MM 1899-10-02 00:00:00 NR 19.46 122.91 138 130 __________P___ -1 19.46 122.91 4 6 292
1899 WP MM 03:00:00 NR 19.57 122.60 137 135 __________P___ -1 19.57 122.60 4 6 289
1899 WP MM 04:00:00 NR 19.60 122.50 135 134 __________O___ -1 19.60 122.50 4 6 284
1899 WP MM 06:00:00 NR 19.65 122.29 134 145 __________P___ -1 19.65 122.29 4 6 281
1899 WP MM 09:00:00 NR 19.69 121.98 145 137 __________P___ -1 19.69 121.98 4 6 276
1899 WP MM 12:00:00 NR 19.71 121.65 137 130 __________P___ -1 19.71 121.65 4 6 271
1899 WP MM 15:00:00 NR 19.71 121.32 130 127 __________P___ -1 19.71 121.32 4 6 268
1899 WP MM 16:00:00 NR 19.70 121.20 127 123 __________O___ -1 19.70 121.20 4 7 269
1899 WP MM 18:00:00 NR 19.70 120.94 123 123 __________P___ -1 19.70 120.94 4 7 269
1899 WP MM 21:00:00 NR 19.69 120.54 127 127 __________P___ -1 19.69 120.54 4 7 265
1899 WP MM 1899-10-03 00:00:00 NR 19.64 120.15 133 133 __________P___ -1 19.64 120.15 4 7 258
1899 WP MM 03:00:00 NR 19.54 119.80 145 145 __________P___ -1 19.54 119.80 4 7 252
1899 WP MM 04:00:00 NR 19.50 119.70 153 153 __________O___ -1 19.50 119.70 4 6 239
1899 WP MM 06:00:00 NR 19.39 119.54 160 153 __________P___ -1 19.39 119.54 4 6 227
1899 WP MM 09:00:00 NR 19.19 119.34 163 157 __________P___ -1 19.19 119.34 4 6 216
1899 WP MM 12:00:00 NR 18.95 119.19 157 157 __________P___ -1 18.95 119.19 4 6 209
1899 WP MM 15:00:00 NR 18.69 119.05 171 167 __________P___ -1 18.69 119.05 4 6 208
1899 WP MM 16:00:00 NR 18.60 119.00 167 164 __________O___ -1 18.60 119.00 4 6 210
1899 WP MM 18:00:00 NR 18.43 118.89 172 172 __________P___ -1 18.43 118.89 4 6 211
1899 WP MM 21:00:00 NR 18.17 118.73 182 178 __________P___ -1 18.17 118.73 4 6 211
1899 WP MM 1899-10-04 00:00:00 NR 17.91 118.56 183 192 __________P___ -1 17.91 118.56 4 6 215
1899 WP MM 03:00:00 NR 17.67 118.37 201 201 __________P___ -1 17.67 118.37 4 6 218
1899 WP MM 04:00:00 NR 17.60 118.30 212 212 __________O___ -1 17.60 118.30 4 6 223
1899 WP MM 06:00:00 NR 17.46 118.16 216 218 __________P___ -1 17.46 118.16 4 6 228
1899 WP MM 09:00:00 NR 17.28 117.92 231 226 __________P___ -1 17.28 117.92 4 6 233
1899 WP MM 12:00:00 NR 17.11 117.67 240 240 __________P___ -1 17.11 117.67 4 6 237
1899 WP MM 15:00:00 NR 16.95 117.39 267 264 __________P___ -1 16.95 117.39 4 6 239
1899 WP MM 16:00:00 NR 16.90 117.30 274 274 __________O___ -1 16.90 117.30 4 7 239
1899 WP MM 18:00:00 NR 16.79 117.10 291 291 __________P___ -1 16.79 117.10 4 7 240
1899 WP MM 21:00:00 NR 16.62 116.79 316 316 __________P___ -1 16.62 116.79 4 7 242
1899 WP MM 1899-10-05 00:00:00 NR 16.47 116.48 346 346 __________P___ -1 16.47 116.48 4 6 244
1899 WP MM 03:00:00 NR 16.34 116.19 375 375 __________P___ -1 16.34 116.19 4 6 245
1899 WP MM 04:00:00 NR 16.30 116.10 386 386 __________O___ -1 16.30 116.10 4 5 245
1899 WP MM 06:00:00 NR 16.23 115.94 406 406 __________P___ -1 16.23 115.94 4 5 246
1899 WP MM 09:00:00 NR 16.14 115.73 427 427 __________P___ -1 16.14 115.73 4 4 248
1899 WP MM 12:00:00 NR 16.07 115.54 449 449 __________P___ -1 16.07 115.54 4 4 251
1899 WP MM 15:00:00 NR 16.01 115.36 459 470 __________P___ -1 16.01 115.36 4 4 253
1899 WP MM 16:00:00 NR 16.00 115.30 470 470 __________O___ -1 16.00 115.30 4 4 256
1899 WP MM 18:00:00 NR 15.97 115.18 481 481 __________P___ -1 15.97 115.18 4 4 259
1899 WP MM 21:00:00 NR 15.94 114.99 502 502 __________P___ -1 15.94 114.99 4 3 262
1899 WP MM 1899-10-06 00:00:00 NR 15.92 114.82 524 524 __________P___ -1 15.92 114.82 4 3 264
1899 WP MM 03:00:00 NR 15.91 114.65 534 542 __________P___ -1 15.91 114.65 4 3 264
1899 WP MM 04:00:00 NR 15.90 114.60 542 534 __________O___ -1 15.90 114.60 4 3 262
1899 WP MM 06:00:00 NR 15.88 114.49 534 517 __________P___ -1 15.88 114.49 4 3 260
1899 WP MM 09:00:00 NR 15.86 114.34 517 516 __________P___ -1 15.86 114.34 4 3 260
1899 WP MM 12:00:00 NR 15.83 114.19 516 500 __________P___ -1 15.83 114.19 4 3 260
1899 WP MM 15:00:00 NR 15.81 114.05 500 500 __________P___ -1 15.81 114.05 4 3 260
1899 WP MM 16:00:00 NR 15.80 114.00 500 492 __________O___ -1 15.80 114.00 4 3 259
1899 WP MM 18:00:00 NR 15.78 113.90 492 477 __________P___ -1 15.78 113.90 4 3 259
1899 WP MM 21:00:00 NR 15.75 113.75 485 477 __________P___ -1 15.75 113.75 4 3 259
1899 WP MM 1899-10-07 00:00:00 NR 15.73 113.60 477 470 __________P___ -1 15.73 113.60 4 3 261
1899 WP MM 03:00:00 NR 15.70 113.45 470 462 __________P___ -1 15.70 113.45 4 3 262
1899 WP MM 04:00:00 NR 15.70 113.40 462 455 __________O___ -1 15.70 113.40 4 3 266
1899 WP MM 06:00:00 NR 15.69 113.30 455 448 __________P___ -1 15.69 113.30 4 3 268
1899 WP MM 09:00:00 NR 15.69 113.15 448 433 __________P___ -1 15.69 113.15 4 3 270
1899 WP MM 12:00:00 NR 15.69 113.00 433 422 __________P___ -1 15.69 113.00 4 3 271
1899 WP MM 15:00:00 NR 15.70 112.85 422 412 __________P___ -1 15.70 112.85 4 3 272
1899 WP MM 16:00:00 NR 15.70 112.80 412 402 __________O___ -1 15.70 112.80 4 3 269
1899 WP MM 18:00:00 NR 15.70 112.69 402 381 __________P___ -1 15.70 112.69 4 3 269
1899 WP MM 21:00:00 NR 15.69 112.54 381 371 __________P___ -1 15.69 112.54 4 3 269
1899 WP MM 1899-10-08 00:00:00 NR 15.69 112.38 371 351 __________P___ -1 15.69 112.38 4 3 271
1899 WP MM 03:00:00 NR 15.70 112.24 351 351 __________P___ -1 15.70 112.24 4 3 273
1899 WP MM 04:00:00 NR 15.70 112.20 351 340 __________O___ -1 15.70 112.20 4 2 276
1899 WP MM 06:00:00 NR 15.71 112.12 340 330 __________P___ -1 15.71 112.12 4 2 279
1899 WP MM 09:00:00 NR 15.73 112.02 330 320 __________P___ -1 15.73 112.02 4 2 283
1899 WP MM 12:00:00 NR 15.75 111.92 324 314 __________P___ -1 15.75 111.92 4 2 288
1899 WP MM 15:00:00 NR 15.79 111.83 314 314 __________P___ -1 15.79 111.83 4 2 292
1899 WP MM 16:00:00 NR 15.80 111.80 314 304 __________O___ -1 15.80 111.80 4 2 294
1899 WP MM 18:00:00 NR 15.83 111.73 304 299 __________P___ -1 15.83 111.73 4 2 296
1899 WP MM 21:00:00 NR 15.88 111.63 299 289 __________P___ -1 15.88 111.63 4 2 298
1899 WP MM 1899-10-09 00:00:00 NR 15.94 111.53 289 282 __________P___ -1 15.94 111.53 4 2 299
1899 WP MM 03:00:00 NR 15.99 111.43 282 282 __________P___ -1 15.99 111.43 4 2 298
1899 WP MM 04:00:00 NR 16.00 111.40 282 272 __________O___ -1 16.00 111.40 4 2 291
1899 WP MM 06:00:00 NR 16.02 111.34 272 272 __________P___ -1 16.02 111.34 4 2 286
1899 WP MM 09:00:00 NR 16.04 111.27 272 262 __________P___ -1 16.04 111.27 4 1 285
1899 WP MM 12:00:00 NR 16.06 111.19 266 256 __________P___ -1 16.06 111.19 4 1 290
1899 WP MM 15:00:00 NR 16.09 111.12 256 256 __________P___ -1 16.09 111.12 4 2 297
1899 WP MM 16:00:00 NR 16.10 111.10 256 256 __________O___ -1 16.10 111.10 4 2 306
1899 WP MM 18:00:00 NR 16.14 111.05 256 246 __________P___ -1 16.14 111.05 4 2 312
1899 WP MM 21:00:00 NR 16.21 110.98 251 241 __________P___ -1 16.21 110.98 4 2 317
1899 WP MM 1899-10-10 00:00:00 NR 16.29 110.90 246 232 __________P___ -1 16.29 110.90 4 2 319
1899 WP MM 03:00:00 NR 16.37 110.83 232 232 __________P___ -1 16.37 110.83 4 2 319
1899 WP MM 04:00:00 NR 16.40 110.80 232 223 __________O___ -1 16.40 110.80 4 2 322
1899 WP MM 06:00:00 NR 16.46 110.75 223 217 __________P___ -1 16.46 110.75 4 2 321
1899 WP MM 09:00:00 NR 16.54 110.68 217 202 __________P___ -1 16.54 110.68 4 2 320
1899 WP MM 12:00:00 NR 16.62 110.61 202 188 __________P___ -1 16.62 110.61 4 2 314
1899 WP MM 15:00:00 NR 16.68 110.53 188 188 __________P___ -1 16.68 110.53 4 2 308
1899 WP MM 16:00:00 NR 16.70 110.50 188 183 __________O___ -1 16.70 110.50 4 2 298
1899 WP MM 18:00:00 NR 16.73 110.44 183 169 __________P___ -1 16.73 110.44 4 2 292
1899 WP MM 21:00:00 NR 16.76 110.34 169 165 __________P___ -1 16.76 110.34 4 2 286
1899 WP MM 1899-10-11 00:00:00 NR 16.79 110.24 165 162 __________P___ -1 16.79 110.24 4 2 279
1899 WP MM 03:00:00 NR 16.80 110.13 162 162 __________P___ -1 16.80 110.13 4 2 276
1899 WP MM 04:00:00 NR 16.80 110.10 162 159 __________O___ -1 16.80 110.10 4 2 275
1899 WP MM 06:00:00 NR 16.81 110.04 159 158 __________P___ -1 16.81 110.04 4 2 273
1899 WP MM 09:00:00 NR 16.81 109.94 158 157 __________P___ -1 16.81 109.94 4 2 270
1899 WP MM 12:00:00 NR 16.81 109.84 157 156 __________P___ -1 16.81 109.84 4 2 268
1899 WP MM 15:00:00 NR 16.80 109.74 156 156 __________P___ -1 16.80 109.74 4 2 268
1899 WP MM 16:00:00 NR 16.80 109.70 156 156 __________O___ -1 16.80 109.70 4 2 272
1899 WP MM 18:00:00 NR 16.81 109.62 156 156 __________P___ -1 16.81 109.62 4 2 274
1899 WP MM 21:00:00 NR 16.81 109.50 156 147 __________P___ -1 16.81 109.50 4 2 273
1899 WP MM 1899-10-12 00:00:00 NR 16.82 109.37 147 131 __________P___ -1 16.82 109.37 4 2 268
1899 WP MM 03:00:00 NR 16.81 109.24 131 131 __________P___ -1 16.81 109.24 4 2 264
1899 WP MM 04:00:00 NR 16.80 109.20 131 123 __________O___ -1 16.80 109.20 4 2 257
1899 WP MM 06:00:00 NR 16.78 109.12 123 108 __________P___ -1 16.78 109.12 4 2 251
1899 WP MM 09:00:00 NR 16.73 109.00 108 101 __________P___ -1 16.73 109.00 4 3 247
1899 WP MM 12:00:00 NR 16.68 108.87 101 78 __________P___ -1 16.68 108.87 4 3 245
1899 WP MM 15:00:00 NR 16.62 108.75 78 78 __________P___ -1 16.62 108.75 4 3 245
1899 WP MM 16:00:00 NR 16.60 108.70 78 69 __________O___ -1 16.60 108.70 4 3 247
1899 WP MM 18:00:00 NR 16.56 108.61 69 54 __________P___ -1 16.56 108.61 4 3 249
1899 WP MM 21:00:00 NR 16.51 108.46 54 39 __________P___ -1 16.51 108.46 4 3 251
1899 WP MM 1899-10-13 00:00:00 NR 16.46 108.31 39 24 __________P___ -1 16.46 108.31 4 3 252
1899 WP MM 03:00:00 NR 16.42 108.15 24 22 __________P___ -1 16.42 108.15 4 3 253
1899 WP MM 04:00:00 NR 16.40 108.10 22 __________O___ -1 16.40 108.10 4 3 254